sensor_id;sensor_type;location;lat;lon;timestamp;pressure;altitude;pressure_sealevel;temperature
45850;BMP180;10739;52.198;20.908;2022-12-20T00:01:25;101036.00;;;2.30
45850;BMP180;10739;52.198;20.908;2022-12-20T00:03:55;101025.00;;;2.30
45850;BMP180;10739;52.198;20.908;2022-12-20T00:06:22;101027.00;;;2.10
45850;BMP180;10739;52.198;20.908;2022-12-20T00:08:58;101024.00;;;2.60
45850;BMP180;10739;52.198;20.908;2022-12-20T00:11:26;101017.00;;;2.60
45850;BMP180;10739;52.198;20.908;2022-12-20T00:13:52;101019.00;;;2.30
45850;BMP180;10739;52.198;20.908;2022-12-20T00:16:24;101010.00;;;2.40
45850;BMP180;10739;52.198;20.908;2022-12-20T00:18:53;101015.00;;;2.50
45850;BMP180;10739;52.198;20.908;2022-12-20T00:21:20;100998.00;;;2.60
45850;BMP180;10739;52.198;20.908;2022-12-20T00:23:47;101001.00;;;2.90
45850;BMP180;10739;52.198;20.908;2022-12-20T00:26:17;100997.00;;;2.90
45850;BMP180;10739;52.198;20.908;2022-12-20T00:28:45;100989.00;;;2.70
45850;BMP180;10739;52.198;20.908;2022-12-20T00:31:15;100992.00;;;2.60
45850;BMP180;10739;52.198;20.908;2022-12-20T00:33:46;100989.00;;;2.50
45850;BMP180;10739;52.198;20.908;2022-12-20T00:36:13;100990.00;;;2.40
45850;BMP180;10739;52.198;20.908;2022-12-20T00:38:40;100999.00;;;2.40
45850;BMP180;10739;52.198;20.908;2022-12-20T00:41:10;101004.00;;;2.90
45850;BMP180;10739;52.198;20.908;2022-12-20T00:43:38;100998.00;;;2.50
45850;BMP180;10739;52.198;20.908;2022-12-20T00:46:07;100995.00;;;2.90
45850;BMP180;10739;52.198;20.908;2022-12-20T00:48:34;100994.00;;;2.70
45850;BMP180;10739;52.198;20.908;2022-12-20T00:51:06;100994.00;;;2.40
45850;BMP180;10739;52.198;20.908;2022-12-20T00:53:33;100985.00;;;2.50
45850;BMP180;10739;52.198;20.908;2022-12-20T00:56:00;100991.00;;;2.20
45850;BMP180;10739;52.198;20.908;2022-12-20T00:58:27;100985.00;;;2.80
45850;BMP180;10739;52.198;20.908;2022-12-20T01:00:54;100978.00;;;2.70
45850;BMP180;10739;52.198;20.908;2022-12-20T01:03:20;100978.00;;;2.80
45850;BMP180;10739;52.198;20.908;2022-12-20T01:05:56;100976.00;;;2.60
45850;BMP180;10739;52.198;20.908;2022-12-20T01:08:25;100967.00;;;2.50
45850;BMP180;10739;52.198;20.908;2022-12-20T01:13:33;100959.00;;;2.40
45850;BMP180;10739;52.198;20.908;2022-12-20T01:16:16;100957.00;;;2.60
45850;BMP180;10739;52.198;20.908;2022-12-20T01:18:44;100962.00;;;2.80
45850;BMP180;10739;52.198;20.908;2022-12-20T01:21:13;100951.00;;;2.40
45850;BMP180;10739;52.198;20.908;2022-12-20T01:23:40;100961.00;;;2.70
45850;BMP180;10739;52.198;20.908;2022-12-20T01:26:13;100956.00;;;2.70
45850;BMP180;10739;52.198;20.908;2022-12-20T01:28:42;100961.00;;;2.60
45850;BMP180;10739;52.198;20.908;2022-12-20T01:31:17;100951.00;;;2.80
45850;BMP180;10739;52.198;20.908;2022-12-20T01:33:48;100942.00;;;2.70
45850;BMP180;10739;52.198;20.908;2022-12-20T01:36:18;100940.00;;;2.70
45850;BMP180;10739;52.198;20.908;2022-12-20T01:38:46;100930.00;;;2.90
45850;BMP180;10739;52.198;20.908;2022-12-20T01:41:21;100928.00;;;2.80
45850;BMP180;10739;52.198;20.908;2022-12-20T01:44:00;100916.00;;;3.00
45850;BMP180;10739;52.198;20.908;2022-12-20T01:46:32;100914.00;;;2.90
45850;BMP180;10739;52.198;20.908;2022-12-20T01:54:23;100898.00;;;2.90
45850;BMP180;10739;52.198;20.908;2022-12-20T01:57:01;100888.00;;;3.00
45850;BMP180;10739;52.198;20.908;2022-12-20T01:59:30;100888.00;;;2.80
45850;BMP180;10739;52.198;20.908;2022-12-20T02:02:01;100876.00;;;3.20
45850;BMP180;10739;52.198;20.908;2022-12-20T02:04:28;100880.00;;;3.00
45850;BMP180;10739;52.198;20.908;2022-12-20T02:06:54;100879.00;;;2.90
45850;BMP180;10739;52.198;20.908;2022-12-20T02:09:21;100868.00;;;3.10
45850;BMP180;10739;52.198;20.908;2022-12-20T02:12:09;100876.00;;;2.90
45850;BMP180;10739;52.198;20.908;2022-12-20T02:20:40;100869.00;;;2.80
45850;BMP180;10739;52.198;20.908;2022-12-20T02:32:20;100865.00;;;3.10
45850;BMP180;10739;52.198;20.908;2022-12-20T02:34:50;100863.00;;;2.90
45850;BMP180;10739;52.198;20.908;2022-12-20T02:37:18;100862.00;;;3.00
45850;BMP180;10739;52.198;20.908;2022-12-20T02:39:45;100859.00;;;3.30
45850;BMP180;10739;52.198;20.908;2022-12-20T02:42:20;100853.00;;;3.40
45850;BMP180;10739;52.198;20.908;2022-12-20T02:44:58;100851.00;;;3.40
45850;BMP180;10739;52.198;20.908;2022-12-20T02:47:47;100862.00;;;3.20
45850;BMP180;10739;52.198;20.908;2022-12-20T02:50:27;100863.00;;;3.50
45850;BMP180;10739;52.198;20.908;2022-12-20T02:52:59;100863.00;;;3.60
45850;BMP180;10739;52.198;20.908;2022-12-20T02:55:51;100852.00;;;3.30
45850;BMP180;10739;52.198;20.908;2022-12-20T02:58:37;100846.00;;;3.40
45850;BMP180;10739;52.198;20.908;2022-12-20T03:01:16;100839.00;;;3.30
45850;BMP180;10739;52.198;20.908;2022-12-20T03:03:44;100835.00;;;3.20
45850;BMP180;10739;52.198;20.908;2022-12-20T03:06:11;100830.00;;;3.10
45850;BMP180;10739;52.198;20.908;2022-12-20T03:08:37;100826.00;;;3.20
45850;BMP180;10739;52.198;20.908;2022-12-20T03:11:04;100828.00;;;3.10
45850;BMP180;10739;52.198;20.908;2022-12-20T03:13:30;100823.00;;;3.10
45850;BMP180;10739;52.198;20.908;2022-12-20T03:15:56;100826.00;;;3.30
45850;BMP180;10739;52.198;20.908;2022-12-20T03:18:23;100816.00;;;3.20
45850;BMP180;10739;52.198;20.908;2022-12-20T03:20:49;100833.00;;;3.40
45850;BMP180;10739;52.198;20.908;2022-12-20T03:23:15;100831.00;;;3.30
45850;BMP180;10739;52.198;20.908;2022-12-20T03:25:41;100851.00;;;3.40
45850;BMP180;10739;52.198;20.908;2022-12-20T03:28:07;100845.00;;;3.50
45850;BMP180;10739;52.198;20.908;2022-12-20T03:30:34;100835.00;;;3.40
45850;BMP180;10739;52.198;20.908;2022-12-20T03:33:00;100830.00;;;3.70
45850;BMP180;10739;52.198;20.908;2022-12-20T03:35:26;100824.00;;;3.70
45850;BMP180;10739;52.198;20.908;2022-12-20T03:37:53;100838.00;;;3.60
45850;BMP180;10739;52.198;20.908;2022-12-20T03:40:21;100826.00;;;3.80
45850;BMP180;10739;52.198;20.908;2022-12-20T03:42:47;100815.00;;;3.80
45850;BMP180;10739;52.198;20.908;2022-12-20T03:45:14;100812.00;;;3.40
45850;BMP180;10739;52.198;20.908;2022-12-20T03:47:40;100808.00;;;3.50
45850;BMP180;10739;52.198;20.908;2022-12-20T03:50:07;100809.00;;;3.30
45850;BMP180;10739;52.198;20.908;2022-12-20T03:52:34;100811.00;;;3.50
45850;BMP180;10739;52.198;20.908;2022-12-20T03:55:00;100827.00;;;4.30
45850;BMP180;10739;52.198;20.908;2022-12-20T03:57:26;100822.00;;;4.30
45850;BMP180;10739;52.198;20.908;2022-12-20T03:59:52;100844.00;;;3.80
45850;BMP180;10739;52.198;20.908;2022-12-20T04:02:20;100835.00;;;3.50
45850;BMP180;10739;52.198;20.908;2022-12-20T04:04:47;100825.00;;;3.70
45850;BMP180;10739;52.198;20.908;2022-12-20T04:07:14;100825.00;;;3.70
45850;BMP180;10739;52.198;20.908;2022-12-20T04:09:40;100834.00;;;3.70
45850;BMP180;10739;52.198;20.908;2022-12-20T04:12:07;100829.00;;;3.60
45850;BMP180;10739;52.198;20.908;2022-12-20T04:14:33;100821.00;;;3.90
45850;BMP180;10739;52.198;20.908;2022-12-20T04:17:00;100809.00;;;4.10
45850;BMP180;10739;52.198;20.908;2022-12-20T04:19:26;100808.00;;;4.20
45850;BMP180;10739;52.198;20.908;2022-12-20T04:21:53;100793.00;;;4.50
45850;BMP180;10739;52.198;20.908;2022-12-20T04:24:21;100795.00;;;4.00
45850;BMP180;10739;52.198;20.908;2022-12-20T04:26:47;100796.00;;;4.00
45850;BMP180;10739;52.198;20.908;2022-12-20T04:29:14;100785.00;;;4.10
45850;BMP180;10739;52.198;20.908;2022-12-20T04:31:41;100802.00;;;3.70
45850;BMP180;10739;52.198;20.908;2022-12-20T04:34:07;100789.00;;;4.10
45850;BMP180;10739;52.198;20.908;2022-12-20T04:36:33;100800.00;;;4.00
45850;BMP180;10739;52.198;20.908;2022-12-20T04:39:00;100797.00;;;3.80
45850;BMP180;10739;52.198;20.908;2022-12-20T04:41:26;100810.00;;;3.90
45850;BMP180;10739;52.198;20.908;2022-12-20T04:43:55;100814.00;;;3.60
45850;BMP180;10739;52.198;20.908;2022-12-20T04:46:24;100795.00;;;3.70
45850;BMP180;10739;52.198;20.908;2022-12-20T04:48:51;100807.00;;;4.00
45850;BMP180;10739;52.198;20.908;2022-12-20T04:51:17;100809.00;;;4.10
45850;BMP180;10739;52.198;20.908;2022-12-20T04:53:44;100820.00;;;3.90
45850;BMP180;10739;52.198;20.908;2022-12-20T04:56:21;100809.00;;;4.00
45850;BMP180;10739;52.198;20.908;2022-12-20T04:58:52;100811.00;;;4.00
45850;BMP180;10739;52.198;20.908;2022-12-20T05:01:19;100809.00;;;4.10
45850;BMP180;10739;52.198;20.908;2022-12-20T05:03:47;100804.00;;;3.90
45850;BMP180;10739;52.198;20.908;2022-12-20T05:06:14;100806.00;;;4.00
45850;BMP180;10739;52.198;20.908;2022-12-20T05:08:41;100795.00;;;4.10
45850;BMP180;10739;52.198;20.908;2022-12-20T05:11:08;100797.00;;;3.80
45850;BMP180;10739;52.198;20.908;2022-12-20T05:13:35;100794.00;;;3.90
45850;BMP180;10739;52.198;20.908;2022-12-20T05:16:01;100781.00;;;3.90
45850;BMP180;10739;52.198;20.908;2022-12-20T05:18:28;100776.00;;;3.90
45850;BMP180;10739;52.198;20.908;2022-12-20T05:20:57;100780.00;;;3.90
45850;BMP180;10739;52.198;20.908;2022-12-20T05:23:42;100782.00;;;4.00
45850;BMP180;10739;52.198;20.908;2022-12-20T05:26:34;100770.00;;;3.80
45850;BMP180;10739;52.198;20.908;2022-12-20T05:29:01;100781.00;;;4.20
45850;BMP180;10739;52.198;20.908;2022-12-20T05:31:28;100772.00;;;4.50
45850;BMP180;10739;52.198;20.908;2022-12-20T05:33:54;100772.00;;;4.40
45850;BMP180;10739;52.198;20.908;2022-12-20T05:36:20;100764.00;;;4.20
45850;BMP180;10739;52.198;20.908;2022-12-20T05:38:46;100761.00;;;4.30
45850;BMP180;10739;52.198;20.908;2022-12-20T05:41:13;100756.00;;;4.00
45850;BMP180;10739;52.198;20.908;2022-12-20T05:43:39;100760.00;;;4.30
45850;BMP180;10739;52.198;20.908;2022-12-20T05:46:05;100771.00;;;4.40
45850;BMP180;10739;52.198;20.908;2022-12-20T05:48:32;100776.00;;;4.10
45850;BMP180;10739;52.198;20.908;2022-12-20T05:50:58;100773.00;;;4.30
45850;BMP180;10739;52.198;20.908;2022-12-20T05:53:24;100768.00;;;4.00
45850;BMP180;10739;52.198;20.908;2022-12-20T05:55:52;100772.00;;;4.40
45850;BMP180;10739;52.198;20.908;2022-12-20T05:58:19;100780.00;;;4.50
45850;BMP180;10739;52.198;20.908;2022-12-20T06:00:46;100768.00;;;4.30
45850;BMP180;10739;52.198;20.908;2022-12-20T06:03:13;100774.00;;;4.40
45850;BMP180;10739;52.198;20.908;2022-12-20T06:05:44;100771.00;;;4.60
45850;BMP180;10739;52.198;20.908;2022-12-20T06:08:12;100777.00;;;4.40
45850;BMP180;10739;52.198;20.908;2022-12-20T06:10:40;100768.00;;;4.60
45850;BMP180;10739;52.198;20.908;2022-12-20T06:13:08;100765.00;;;4.60
45850;BMP180;10739;52.198;20.908;2022-12-20T06:15:35;100769.00;;;4.30
45850;BMP180;10739;52.198;20.908;2022-12-20T06:18:01;100773.00;;;4.60
45850;BMP180;10739;52.198;20.908;2022-12-20T06:20:28;100768.00;;;4.60
45850;BMP180;10739;52.198;20.908;2022-12-20T06:22:54;100767.00;;;4.30
45850;BMP180;10739;52.198;20.908;2022-12-20T06:25:21;100778.00;;;4.50
45850;BMP180;10739;52.198;20.908;2022-12-20T06:27:47;100779.00;;;4.70
45850;BMP180;10739;52.198;20.908;2022-12-20T06:30:15;100778.00;;;5.20
45850;BMP180;10739;52.198;20.908;2022-12-20T06:32:42;100773.00;;;4.60
45850;BMP180;10739;52.198;20.908;2022-12-20T06:35:08;100769.00;;;5.00
45850;BMP180;10739;52.198;20.908;2022-12-20T06:37:34;100769.00;;;5.00
45850;BMP180;10739;52.198;20.908;2022-12-20T06:40:02;100766.00;;;4.80
45850;BMP180;10739;52.198;20.908;2022-12-20T06:42:30;100767.00;;;5.10
45850;BMP180;10739;52.198;20.908;2022-12-20T06:44:56;100771.00;;;4.50
45850;BMP180;10739;52.198;20.908;2022-12-20T06:47:23;100778.00;;;4.70
45850;BMP180;10739;52.198;20.908;2022-12-20T06:49:49;100782.00;;;4.80
45850;BMP180;10739;52.198;20.908;2022-12-20T06:52:15;100777.00;;;5.40
45850;BMP180;10739;52.198;20.908;2022-12-20T06:54:42;100786.00;;;4.90
45850;BMP180;10739;52.198;20.908;2022-12-20T06:57:08;100787.00;;;4.60
45850;BMP180;10739;52.198;20.908;2022-12-20T06:59:34;100793.00;;;5.30
45850;BMP180;10739;52.198;20.908;2022-12-20T07:02:00;100789.00;;;4.80
45850;BMP180;10739;52.198;20.908;2022-12-20T07:04:27;100798.00;;;4.80
45850;BMP180;10739;52.198;20.908;2022-12-20T07:06:53;100788.00;;;5.10
45850;BMP180;10739;52.198;20.908;2022-12-20T07:09:19;100795.00;;;5.00
45850;BMP180;10739;52.198;20.908;2022-12-20T07:11:45;100797.00;;;5.50
45850;BMP180;10739;52.198;20.908;2022-12-20T07:14:12;100808.00;;;5.40
45850;BMP180;10739;52.198;20.908;2022-12-20T07:16:38;100801.00;;;5.30
45850;BMP180;10739;52.198;20.908;2022-12-20T07:19:06;100799.00;;;4.90
45850;BMP180;10739;52.198;20.908;2022-12-20T07:21:32;100798.00;;;5.00
45850;BMP180;10739;52.198;20.908;2022-12-20T07:23:58;100792.00;;;5.30
45850;BMP180;10739;52.198;20.908;2022-12-20T07:26:24;100784.00;;;5.10
45850;BMP180;10739;52.198;20.908;2022-12-20T07:28:50;100785.00;;;4.90
45850;BMP180;10739;52.198;20.908;2022-12-20T07:31:16;100792.00;;;5.10
45850;BMP180;10739;52.198;20.908;2022-12-20T07:33:43;100791.00;;;5.00
45850;BMP180;10739;52.198;20.908;2022-12-20T07:36:12;100787.00;;;4.90
45850;BMP180;10739;52.198;20.908;2022-12-20T07:38:38;100785.00;;;5.00
45850;BMP180;10739;52.198;20.908;2022-12-20T07:41:14;100789.00;;;4.80
45850;BMP180;10739;52.198;20.908;2022-12-20T07:43:42;100783.00;;;4.90
45850;BMP180;10739;52.198;20.908;2022-12-20T07:46:12;100780.00;;;5.10
45850;BMP180;10739;52.198;20.908;2022-12-20T07:48:38;100785.00;;;5.20
45850;BMP180;10739;52.198;20.908;2022-12-20T07:51:16;100788.00;;;5.20
45850;BMP180;10739;52.198;20.908;2022-12-20T07:54:02;100786.00;;;5.30
45850;BMP180;10739;52.198;20.908;2022-12-20T07:56:33;100779.00;;;5.00
45850;BMP180;10739;52.198;20.908;2022-12-20T07:59:02;100782.00;;;5.10
45850;BMP180;10739;52.198;20.908;2022-12-20T08:01:30;100783.00;;;5.10
45850;BMP180;10739;52.198;20.908;2022-12-20T08:04:05;100790.00;;;5.30
45850;BMP180;10739;52.198;20.908;2022-12-20T08:06:35;100780.00;;;5.00
45850;BMP180;10739;52.198;20.908;2022-12-20T08:09:04;100790.00;;;5.20
45850;BMP180;10739;52.198;20.908;2022-12-20T08:11:34;100802.00;;;5.30
45850;BMP180;10739;52.198;20.908;2022-12-20T08:14:03;100800.00;;;5.30
45850;BMP180;10739;52.198;20.908;2022-12-20T08:16:30;100795.00;;;5.30
45850;BMP180;10739;52.198;20.908;2022-12-20T08:18:57;100792.00;;;5.40
45850;BMP180;10739;52.198;20.908;2022-12-20T08:21:23;100797.00;;;5.40
45850;BMP180;10739;52.198;20.908;2022-12-20T08:23:49;100790.00;;;5.30
45850;BMP180;10739;52.198;20.908;2022-12-20T08:26:16;100787.00;;;5.10
45850;BMP180;10739;52.198;20.908;2022-12-20T08:28:43;100786.00;;;5.30
45850;BMP180;10739;52.198;20.908;2022-12-20T08:31:10;100783.00;;;5.40
45850;BMP180;10739;52.198;20.908;2022-12-20T08:33:38;100787.00;;;5.80
45850;BMP180;10739;52.198;20.908;2022-12-20T08:36:09;100784.00;;;6.00
45850;BMP180;10739;52.198;20.908;2022-12-20T08:38:36;100776.00;;;5.60
45850;BMP180;10739;52.198;20.908;2022-12-20T08:41:09;100780.00;;;5.30
45850;BMP180;10739;52.198;20.908;2022-12-20T08:43:36;100770.00;;;5.50
45850;BMP180;10739;52.198;20.908;2022-12-20T08:46:03;100771.00;;;5.60
45850;BMP180;10739;52.198;20.908;2022-12-20T08:48:29;100773.00;;;5.90
45850;BMP180;10739;52.198;20.908;2022-12-20T08:50:58;100771.00;;;5.80
45850;BMP180;10739;52.198;20.908;2022-12-20T08:53:26;100777.00;;;5.60
45850;BMP180;10739;52.198;20.908;2022-12-20T08:55:53;100779.00;;;5.70
45850;BMP180;10739;52.198;20.908;2022-12-20T08:58:20;100774.00;;;5.80
45850;BMP180;10739;52.198;20.908;2022-12-20T09:00:46;100772.00;;;5.80
45850;BMP180;10739;52.198;20.908;2022-12-20T09:03:12;100780.00;;;5.70
45850;BMP180;10739;52.198;20.908;2022-12-20T09:05:47;100780.00;;;5.90
45850;BMP180;10739;52.198;20.908;2022-12-20T09:08:14;100780.00;;;6.00
45850;BMP180;10739;52.198;20.908;2022-12-20T09:10:42;100775.00;;;5.90
45850;BMP180;10739;52.198;20.908;2022-12-20T09:13:10;100779.00;;;6.00
45850;BMP180;10739;52.198;20.908;2022-12-20T09:15:36;100767.00;;;6.10
45850;BMP180;10739;52.198;20.908;2022-12-20T09:18:03;100762.00;;;6.10
45850;BMP180;10739;52.198;20.908;2022-12-20T09:20:31;100762.00;;;6.00
45850;BMP180;10739;52.198;20.908;2022-12-20T09:22:58;100768.00;;;6.10
45850;BMP180;10739;52.198;20.908;2022-12-20T09:25:26;100762.00;;;6.70
45850;BMP180;10739;52.198;20.908;2022-12-20T09:27:53;100766.00;;;6.70
45850;BMP180;10739;52.198;20.908;2022-12-20T09:30:23;100763.00;;;7.20
45850;BMP180;10739;52.198;20.908;2022-12-20T09:32:52;100761.00;;;7.50
45850;BMP180;10739;52.198;20.908;2022-12-20T09:35:20;100767.00;;;7.50
45850;BMP180;10739;52.198;20.908;2022-12-20T09:37:47;100754.00;;;6.80
45850;BMP180;10739;52.198;20.908;2022-12-20T09:40:20;100747.00;;;6.90
45850;BMP180;10739;52.198;20.908;2022-12-20T09:42:49;100750.00;;;6.90
45850;BMP180;10739;52.198;20.908;2022-12-20T09:45:27;100741.00;;;6.80
45850;BMP180;10739;52.198;20.908;2022-12-20T09:47:54;100758.00;;;7.50
45850;BMP180;10739;52.198;20.908;2022-12-20T09:50:49;100764.00;;;7.60
45850;BMP180;10739;52.198;20.908;2022-12-20T09:56:38;100776.00;;;6.70
45850;BMP180;10739;52.198;20.908;2022-12-20T09:59:18;100765.00;;;6.70
45850;BMP180;10739;52.198;20.908;2022-12-20T10:01:48;100783.00;;;6.60
45850;BMP180;10739;52.198;20.908;2022-12-20T10:13:36;100765.00;;;6.80
45850;BMP180;10739;52.198;20.908;2022-12-20T10:21:50;100758.00;;;6.70
45850;BMP180;10739;52.198;20.908;2022-12-20T10:24:26;100768.00;;;6.60
45850;BMP180;10739;52.198;20.908;2022-12-20T10:26:57;100768.00;;;6.50
45850;BMP180;10739;52.198;20.908;2022-12-20T10:29:27;100770.00;;;6.30
45850;BMP180;10739;52.198;20.908;2022-12-20T10:32:00;100771.00;;;6.50
45850;BMP180;10739;52.198;20.908;2022-12-20T10:34:27;100765.00;;;6.50
45850;BMP180;10739;52.198;20.908;2022-12-20T10:37:14;100756.00;;;6.70
45850;BMP180;10739;52.198;20.908;2022-12-20T10:39:47;100747.00;;;6.60
45850;BMP180;10739;52.198;20.908;2022-12-20T10:45:01;100747.00;;;7.20
45850;BMP180;10739;52.198;20.908;2022-12-20T10:47:44;100739.00;;;7.20
45850;BMP180;10739;52.198;20.908;2022-12-20T10:50:22;100728.00;;;6.50
45850;BMP180;10739;52.198;20.908;2022-12-20T10:53:23;100739.00;;;6.90
45850;BMP180;10739;52.198;20.908;2022-12-20T10:55:52;100733.00;;;7.20
45850;BMP180;10739;52.198;20.908;2022-12-20T10:58:34;100721.00;;;6.90
45850;BMP180;10739;52.198;20.908;2022-12-20T11:01:21;100728.00;;;6.80
45850;BMP180;10739;52.198;20.908;2022-12-20T11:03:53;100721.00;;;7.10
45850;BMP180;10739;52.198;20.908;2022-12-20T11:06:25;100704.00;;;7.10
45850;BMP180;10739;52.198;20.908;2022-12-20T11:08:52;100694.00;;;7.40
45850;BMP180;10739;52.198;20.908;2022-12-20T11:11:23;100702.00;;;7.40
45850;BMP180;10739;52.198;20.908;2022-12-20T11:13:51;100692.00;;;7.30
45850;BMP180;10739;52.198;20.908;2022-12-20T11:16:37;100682.00;;;7.30
45850;BMP180;10739;52.198;20.908;2022-12-20T11:20:01;100662.00;;;7.00
45850;BMP180;10739;52.198;20.908;2022-12-20T11:22:58;100660.00;;;7.10
45850;BMP180;10739;52.198;20.908;2022-12-20T11:29:15;100674.00;;;6.90
45850;BMP180;10739;52.198;20.908;2022-12-20T11:40:31;100678.00;;;6.50
45850;BMP180;10739;52.198;20.908;2022-12-20T11:43:54;100681.00;;;6.80
45850;BMP180;10739;52.198;20.908;2022-12-20T11:52:11;100669.00;;;6.80
45850;BMP180;10739;52.198;20.908;2022-12-20T11:54:46;100660.00;;;6.90
45850;BMP180;10739;52.198;20.908;2022-12-20T11:57:43;100665.00;;;7.10
45850;BMP180;10739;52.198;20.908;2022-12-20T12:00:14;100654.00;;;6.50
45850;BMP180;10739;52.198;20.908;2022-12-20T12:03:00;100659.00;;;7.10
45850;BMP180;10739;52.198;20.908;2022-12-20T12:05:49;100662.00;;;7.10
45850;BMP180;10739;52.198;20.908;2022-12-20T12:08:24;100670.00;;;7.10
45850;BMP180;10739;52.198;20.908;2022-12-20T12:11:00;100665.00;;;7.30
45850;BMP180;10739;52.198;20.908;2022-12-20T12:13:34;100666.00;;;7.50
45850;BMP180;10739;52.198;20.908;2022-12-20T12:16:27;100655.00;;;7.20
45850;BMP180;10739;52.198;20.908;2022-12-20T12:18:59;100656.00;;;6.80
45850;BMP180;10739;52.198;20.908;2022-12-20T12:21:57;100666.00;;;6.90
45850;BMP180;10739;52.198;20.908;2022-12-20T12:24:39;100649.00;;;7.10
45850;BMP180;10739;52.198;20.908;2022-12-20T12:27:24;100650.00;;;7.20
45850;BMP180;10739;52.198;20.908;2022-12-20T12:29:57;100654.00;;;7.00
45850;BMP180;10739;52.198;20.908;2022-12-20T12:32:52;100657.00;;;6.90
45850;BMP180;10739;52.198;20.908;2022-12-20T12:42:31;100659.00;;;6.70
45850;BMP180;10739;52.198;20.908;2022-12-20T12:46:13;100662.00;;;6.40
45850;BMP180;10739;52.198;20.908;2022-12-20T12:51:08;100652.00;;;7.00
45850;BMP180;10739;52.198;20.908;2022-12-20T12:53:51;100657.00;;;6.80
45850;BMP180;10739;52.198;20.908;2022-12-20T13:01:55;100655.00;;;6.70
45850;BMP180;10739;52.198;20.908;2022-12-20T13:20:32;100658.00;;;6.80
45850;BMP180;10739;52.198;20.908;2022-12-20T13:23:22;100667.00;;;7.00
45850;BMP180;10739;52.198;20.908;2022-12-20T13:25:50;100675.00;;;7.10
45850;BMP180;10739;52.198;20.908;2022-12-20T13:33:44;100672.00;;;7.20
45850;BMP180;10739;52.198;20.908;2022-12-20T13:38:49;100681.00;;;7.30
45850;BMP180;10739;52.198;20.908;2022-12-20T13:41:33;100685.00;;;7.10
45850;BMP180;10739;52.198;20.908;2022-12-20T13:49:51;100684.00;;;7.20
45850;BMP180;10739;52.198;20.908;2022-12-20T13:52:29;100689.00;;;6.80
45850;BMP180;10739;52.198;20.908;2022-12-20T13:55:14;100691.00;;;7.10
45850;BMP180;10739;52.198;20.908;2022-12-20T13:57:44;100686.00;;;7.00
45850;BMP180;10739;52.198;20.908;2022-12-20T14:00:21;100681.00;;;7.30
45850;BMP180;10739;52.198;20.908;2022-12-20T14:02:52;100661.00;;;7.20
45850;BMP180;10739;52.198;20.908;2022-12-20T14:05:20;100665.00;;;7.30
45850;BMP180;10739;52.198;20.908;2022-12-20T14:08:24;100657.00;;;7.20
45850;BMP180;10739;52.198;20.908;2022-12-20T14:10:52;100650.00;;;7.30
45850;BMP180;10739;52.198;20.908;2022-12-20T14:13:26;100652.00;;;7.70
45850;BMP180;10739;52.198;20.908;2022-12-20T14:15:53;100652.00;;;7.80
45850;BMP180;10739;52.198;20.908;2022-12-20T14:18:24;100649.00;;;7.50
45850;BMP180;10739;52.198;20.908;2022-12-20T14:21:03;100656.00;;;7.20
45850;BMP180;10739;52.198;20.908;2022-12-20T14:23:43;100649.00;;;7.00
45850;BMP180;10739;52.198;20.908;2022-12-20T14:26:23;100655.00;;;7.00
45850;BMP180;10739;52.198;20.908;2022-12-20T14:29:00;100649.00;;;7.00
45850;BMP180;10739;52.198;20.908;2022-12-20T14:31:39;100649.00;;;6.80
45850;BMP180;10739;52.198;20.908;2022-12-20T14:36:45;100650.00;;;6.70
45850;BMP180;10739;52.198;20.908;2022-12-20T14:39:27;100654.00;;;6.70
45850;BMP180;10739;52.198;20.908;2022-12-20T14:44:34;100661.00;;;6.60
45850;BMP180;10739;52.198;20.908;2022-12-20T14:47:17;100654.00;;;6.40
45850;BMP180;10739;52.198;20.908;2022-12-20T14:49:58;100658.00;;;6.40
45850;BMP180;10739;52.198;20.908;2022-12-20T14:52:37;100650.00;;;6.50
45850;BMP180;10739;52.198;20.908;2022-12-20T14:55:22;100656.00;;;6.30
45850;BMP180;10739;52.198;20.908;2022-12-20T14:57:56;100655.00;;;6.60
45850;BMP180;10739;52.198;20.908;2022-12-20T15:00:33;100641.00;;;6.50
45850;BMP180;10739;52.198;20.908;2022-12-20T15:03:18;100644.00;;;6.40
45850;BMP180;10739;52.198;20.908;2022-12-20T15:08:32;100631.00;;;6.30
45850;BMP180;10739;52.198;20.908;2022-12-20T15:11:21;100622.00;;;6.50
45850;BMP180;10739;52.198;20.908;2022-12-20T15:13:50;100630.00;;;6.60
45850;BMP180;10739;52.198;20.908;2022-12-20T15:16:47;100621.00;;;6.60
45850;BMP180;10739;52.198;20.908;2022-12-20T15:19:13;100623.00;;;6.70
45850;BMP180;10739;52.198;20.908;2022-12-20T15:21:42;100617.00;;;6.60
45850;BMP180;10739;52.198;20.908;2022-12-20T15:24:24;100611.00;;;6.20
45850;BMP180;10739;52.198;20.908;2022-12-20T15:26:52;100615.00;;;6.40
45850;BMP180;10739;52.198;20.908;2022-12-20T15:29:24;100606.00;;;6.10
45850;BMP180;10739;52.198;20.908;2022-12-20T15:32:23;100606.00;;;5.90
45850;BMP180;10739;52.198;20.908;2022-12-20T15:34:53;100607.00;;;6.10
45850;BMP180;10739;52.198;20.908;2022-12-20T15:37:19;100612.00;;;6.20
45850;BMP180;10739;52.198;20.908;2022-12-20T15:39:46;100606.00;;;6.30
45850;BMP180;10739;52.198;20.908;2022-12-20T15:42:17;100616.00;;;6.20
45850;BMP180;10739;52.198;20.908;2022-12-20T15:44:45;100610.00;;;6.10
45850;BMP180;10739;52.198;20.908;2022-12-20T15:47:13;100601.00;;;6.60
45850;BMP180;10739;52.198;20.908;2022-12-20T15:49:40;100601.00;;;6.50
45850;BMP180;10739;52.198;20.908;2022-12-20T15:52:20;100606.00;;;6.60
45850;BMP180;10739;52.198;20.908;2022-12-20T15:54:47;100583.00;;;6.70
45850;BMP180;10739;52.198;20.908;2022-12-20T15:57:14;100595.00;;;6.50
45850;BMP180;10739;52.198;20.908;2022-12-20T15:59:41;100596.00;;;6.20
45850;BMP180;10739;52.198;20.908;2022-12-20T16:02:26;100598.00;;;6.10
45850;BMP180;10739;52.198;20.908;2022-12-20T16:04:53;100606.00;;;6.40
45850;BMP180;10739;52.198;20.908;2022-12-20T16:07:21;100604.00;;;6.30
45850;BMP180;10739;52.198;20.908;2022-12-20T16:09:48;100598.00;;;6.00
45850;BMP180;10739;52.198;20.908;2022-12-20T16:12:28;100598.00;;;6.00
45850;BMP180;10739;52.198;20.908;2022-12-20T16:14:55;100600.00;;;6.00
45850;BMP180;10739;52.198;20.908;2022-12-20T16:17:22;100589.00;;;6.30